sensor_id;sensor_type;location;lat;lon;timestamp;P1;durP1;ratioP1;P2;durP2;ratioP2
18304;SDS011;9278;52.156;21.048;2023-04-01T00:01:07;24.38;;;11.77;;
18304;SDS011;9278;52.156;21.048;2023-04-01T00:03:35;22.58;;;11.90;;
18304;SDS011;9278;52.156;21.048;2023-04-01T00:06:04;21.83;;;10.27;;
18304;SDS011;9278;52.156;21.048;2023-04-01T00:08:32;23.45;;;11.02;;
18304;SDS011;9278;52.156;21.048;2023-04-01T00:11:01;22.52;;;11.65;;
18304;SDS011;9278;52.156;21.048;2023-04-01T00:13:29;26.63;;;11.90;;
18304;SDS011;9278;52.156;21.048;2023-04-01T00:16:00;25.17;;;10.82;;
18304;SDS011;9278;52.156;21.048;2023-04-01T00:18:35;25.42;;;11.63;;
18304;SDS011;9278;52.156;21.048;2023-04-01T00:21:03;23.90;;;11.65;;
18304;SDS011;9278;52.156;21.048;2023-04-01T00:23:31;22.10;;;12.02;;
18304;SDS011;9278;52.156;21.048;2023-04-01T00:26:00;23.92;;;11.90;;
18304;SDS011;9278;52.156;21.048;2023-04-01T00:28:29;23.90;;;11.07;;
18304;SDS011;9278;52.156;21.048;2023-04-01T00:30:57;21.85;;;11.68;;
18304;SDS011;9278;52.156;21.048;2023-04-01T00:33:31;21.92;;;11.68;;
18304;SDS011;9278;52.156;21.048;2023-04-01T00:36:05;23.55;;;11.98;;
18304;SDS011;9278;52.156;21.048;2023-04-01T00:38:34;21.48;;;11.35;;
18304;SDS011;9278;52.156;21.048;2023-04-01T00:41:04;27.35;;;12.23;;
18304;SDS011;9278;52.156;21.048;2023-04-01T00:43:33;23.75;;;11.60;;
18304;SDS011;9278;52.156;21.048;2023-04-01T00:46:03;19.15;;;11.25;;
18304;SDS011;9278;52.156;21.048;2023-04-01T00:48:33;18.48;;;11.10;;
18304;SDS011;9278;52.156;21.048;2023-04-01T00:51:04;26.60;;;12.05;;
18304;SDS011;9278;52.156;21.048;2023-04-01T00:53:36;26.70;;;12.70;;
18304;SDS011;9278;52.156;21.048;2023-04-01T00:56:09;22.27;;;11.95;;
18304;SDS011;9278;52.156;21.048;2023-04-01T00:58:41;19.40;;;11.60;;
18304;SDS011;9278;52.156;21.048;2023-04-01T01:01:15;25.45;;;12.05;;
18304;SDS011;9278;52.156;21.048;2023-04-01T01:03:43;26.10;;;12.95;;
18304;SDS011;9278;52.156;21.048;2023-04-01T01:06:15;25.25;;;11.85;;
18304;SDS011;9278;52.156;21.048;2023-04-01T01:11:51;23.60;;;12.25;;
18304;SDS011;9278;52.156;21.048;2023-04-01T01:14:29;22.15;;;12.18;;
18304;SDS011;9278;52.156;21.048;2023-04-01T01:17:06;22.73;;;11.60;;
18304;SDS011;9278;52.156;21.048;2023-04-01T01:19:58;27.05;;;12.68;;
18304;SDS011;9278;52.156;21.048;2023-04-01T01:22:56;24.13;;;11.55;;
18304;SDS011;9278;52.156;21.048;2023-04-01T01:25:39;23.60;;;12.60;;
18304;SDS011;9278;52.156;21.048;2023-04-01T01:28:17;23.17;;;12.18;;
18304;SDS011;9278;52.156;21.048;2023-04-01T01:30:58;25.80;;;12.20;;
18304;SDS011;9278;52.156;21.048;2023-04-01T01:33:43;27.40;;;13.38;;
18304;SDS011;9278;52.156;21.048;2023-04-01T01:36:22;30.02;;;12.77;;
18304;SDS011;9278;52.156;21.048;2023-04-01T01:38:54;27.50;;;12.07;;
18304;SDS011;9278;52.156;21.048;2023-04-01T01:41:24;28.40;;;13.25;;
18304;SDS011;9278;52.156;21.048;2023-04-01T01:43:54;22.63;;;12.02;;
18304;SDS011;9278;52.156;21.048;2023-04-01T01:46:26;20.20;;;11.90;;
18304;SDS011;9278;52.156;21.048;2023-04-01T01:48:57;20.90;;;11.70;;
18304;SDS011;9278;52.156;21.048;2023-04-01T01:51:28;25.70;;;11.60;;
18304;SDS011;9278;52.156;21.048;2023-04-01T01:54:00;24.13;;;11.55;;
18304;SDS011;9278;52.156;21.048;2023-04-01T01:56:29;21.45;;;11.93;;
18304;SDS011;9278;52.156;21.048;2023-04-01T01:59:00;22.77;;;11.48;;
18304;SDS011;9278;52.156;21.048;2023-04-01T02:01:35;21.15;;;11.05;;
18304;SDS011;9278;52.156;21.048;2023-04-01T02:04:11;26.27;;;11.90;;
18304;SDS011;9278;52.156;21.048;2023-04-01T02:06:44;21.10;;;12.77;;
18304;SDS011;9278;52.156;21.048;2023-04-01T02:09:19;20.83;;;11.35;;
18304;SDS011;9278;52.156;21.048;2023-04-01T02:11:48;23.15;;;12.75;;
18304;SDS011;9278;52.156;21.048;2023-04-01T02:14:21;18.67;;;11.60;;
18304;SDS011;9278;52.156;21.048;2023-04-01T02:16:53;22.90;;;12.07;;
18304;SDS011;9278;52.156;21.048;2023-04-01T02:19:25;31.17;;;12.00;;
18304;SDS011;9278;52.156;21.048;2023-04-01T02:22:01;24.63;;;12.90;;
18304;SDS011;9278;52.156;21.048;2023-04-01T02:24:31;26.20;;;12.32;;
18304;SDS011;9278;52.156;21.048;2023-04-01T02:27:04;23.83;;;12.90;;
18304;SDS011;9278;52.156;21.048;2023-04-01T02:29:32;25.17;;;13.43;;
18304;SDS011;9278;52.156;21.048;2023-04-01T02:32:05;26.25;;;14.18;;
18304;SDS011;9278;52.156;21.048;2023-04-01T02:34:34;28.23;;;13.93;;
18304;SDS011;9278;52.156;21.048;2023-04-01T02:37:04;30.05;;;14.55;;
18304;SDS011;9278;52.156;21.048;2023-04-01T02:39:33;28.15;;;14.40;;
18304;SDS011;9278;52.156;21.048;2023-04-01T02:42:01;27.63;;;13.93;;
18304;SDS011;9278;52.156;21.048;2023-04-01T02:44:30;32.50;;;14.27;;
18304;SDS011;9278;52.156;21.048;2023-04-01T02:46:58;29.20;;;15.23;;
18304;SDS011;9278;52.156;21.048;2023-04-01T02:49:27;32.78;;;15.63;;
18304;SDS011;9278;52.156;21.048;2023-04-01T02:51:55;29.23;;;16.23;;
18304;SDS011;9278;52.156;21.048;2023-04-01T02:54:25;29.65;;;15.93;;
18304;SDS011;9278;52.156;21.048;2023-04-01T02:56:53;31.35;;;16.27;;
18304;SDS011;9278;52.156;21.048;2023-04-01T02:59:22;32.03;;;16.67;;
18304;SDS011;9278;52.156;21.048;2023-04-01T03:01:50;31.60;;;16.15;;
18304;SDS011;9278;52.156;21.048;2023-04-01T03:04:19;31.23;;;16.35;;
18304;SDS011;9278;52.156;21.048;2023-04-01T03:06:47;32.67;;;15.77;;
18304;SDS011;9278;52.156;21.048;2023-04-01T03:09:16;28.88;;;16.05;;
18304;SDS011;9278;52.156;21.048;2023-04-01T03:11:45;29.40;;;16.45;;
18304;SDS011;9278;52.156;21.048;2023-04-01T03:14:14;28.27;;;15.80;;
18304;SDS011;9278;52.156;21.048;2023-04-01T03:16:42;30.95;;;16.23;;
18304;SDS011;9278;52.156;21.048;2023-04-01T03:19:11;32.78;;;17.15;;
18304;SDS011;9278;52.156;21.048;2023-04-01T03:21:39;32.85;;;17.05;;
18304;SDS011;9278;52.156;21.048;2023-04-01T03:24:07;36.13;;;16.33;;
18304;SDS011;9278;52.156;21.048;2023-04-01T03:26:36;29.85;;;16.80;;
18304;SDS011;9278;52.156;21.048;2023-04-01T03:29:06;30.65;;;16.98;;
18304;SDS011;9278;52.156;21.048;2023-04-01T03:31:34;30.55;;;16.05;;
18304;SDS011;9278;52.156;21.048;2023-04-01T03:34:03;37.45;;;18.17;;
18304;SDS011;9278;52.156;21.048;2023-04-01T03:36:31;37.10;;;17.58;;
18304;SDS011;9278;52.156;21.048;2023-04-01T03:39:00;32.85;;;18.10;;
18304;SDS011;9278;52.156;21.048;2023-04-01T03:41:38;30.60;;;17.17;;
18304;SDS011;9278;52.156;21.048;2023-04-01T03:44:07;35.08;;;17.50;;
18304;SDS011;9278;52.156;21.048;2023-04-01T03:46:35;36.47;;;17.60;;
18304;SDS011;9278;52.156;21.048;2023-04-01T03:49:06;29.85;;;17.30;;
18304;SDS011;9278;52.156;21.048;2023-04-01T03:51:37;29.23;;;17.27;;
18304;SDS011;9278;52.156;21.048;2023-04-01T03:54:06;33.28;;;17.52;;
18304;SDS011;9278;52.156;21.048;2023-04-01T03:56:35;32.17;;;16.52;;
18304;SDS011;9278;52.156;21.048;2023-04-01T03:59:05;32.97;;;17.02;;
18304;SDS011;9278;52.156;21.048;2023-04-01T04:01:36;27.58;;;16.02;;
18304;SDS011;9278;52.156;21.048;2023-04-01T04:04:04;31.63;;;17.35;;
18304;SDS011;9278;52.156;21.048;2023-04-01T04:06:33;28.63;;;15.50;;
18304;SDS011;9278;52.156;21.048;2023-04-01T04:09:01;26.77;;;15.55;;
18304;SDS011;9278;52.156;21.048;2023-04-01T04:11:30;27.55;;;16.00;;
18304;SDS011;9278;52.156;21.048;2023-04-01T04:13:59;27.42;;;16.48;;
18304;SDS011;9278;52.156;21.048;2023-04-01T04:16:28;32.25;;;16.13;;
18304;SDS011;9278;52.156;21.048;2023-04-01T04:19:01;27.70;;;16.02;;
18304;SDS011;9278;52.156;21.048;2023-04-01T04:21:30;26.73;;;16.15;;
18304;SDS011;9278;52.156;21.048;2023-04-01T04:23:59;26.02;;;15.85;;
18304;SDS011;9278;52.156;21.048;2023-04-01T04:26:41;26.60;;;15.15;;
18304;SDS011;9278;52.156;21.048;2023-04-01T04:29:09;25.15;;;14.95;;
18304;SDS011;9278;52.156;21.048;2023-04-01T04:31:37;25.42;;;15.20;;
18304;SDS011;9278;52.156;21.048;2023-04-01T04:34:07;24.63;;;14.45;;
18304;SDS011;9278;52.156;21.048;2023-04-01T04:36:35;26.70;;;15.43;;
18304;SDS011;9278;52.156;21.048;2023-04-01T04:39:03;27.02;;;13.73;;
18304;SDS011;9278;52.156;21.048;2023-04-01T04:41:33;24.50;;;14.50;;
18304;SDS011;9278;52.156;21.048;2023-04-01T04:44:05;24.67;;;13.95;;
18304;SDS011;9278;52.156;21.048;2023-04-01T04:46:33;25.05;;;14.27;;
18304;SDS011;9278;52.156;21.048;2023-04-01T04:49:14;21.27;;;13.32;;
18304;SDS011;9278;52.156;21.048;2023-04-01T04:51:43;20.27;;;12.93;;
18304;SDS011;9278;52.156;21.048;2023-04-01T04:54:13;19.67;;;12.10;;
18304;SDS011;9278;52.156;21.048;2023-04-01T04:56:51;21.85;;;12.20;;
18304;SDS011;9278;52.156;21.048;2023-04-01T04:59:21;19.88;;;12.30;;
18304;SDS011;9278;52.156;21.048;2023-04-01T05:02:01;19.50;;;12.20;;
18304;SDS011;9278;52.156;21.048;2023-04-01T05:04:31;23.45;;;13.15;;
18304;SDS011;9278;52.156;21.048;2023-04-01T05:07:03;20.60;;;12.05;;
18304;SDS011;9278;52.156;21.048;2023-04-01T05:09:33;18.65;;;11.35;;
18304;SDS011;9278;52.156;21.048;2023-04-01T05:12:01;21.38;;;12.10;;
18304;SDS011;9278;52.156;21.048;2023-04-01T05:14:48;19.48;;;11.05;;
18304;SDS011;9278;52.156;21.048;2023-04-01T05:17:17;19.50;;;11.20;;
18304;SDS011;9278;52.156;21.048;2023-04-01T05:19:46;20.60;;;11.45;;
18304;SDS011;9278;52.156;21.048;2023-04-01T05:22:15;18.30;;;11.48;;
18304;SDS011;9278;52.156;21.048;2023-04-01T05:24:43;23.15;;;11.00;;
18304;SDS011;9278;52.156;21.048;2023-04-01T05:27:12;19.17;;;11.30;;
18304;SDS011;9278;52.156;21.048;2023-04-01T05:29:41;18.20;;;11.32;;
18304;SDS011;9278;52.156;21.048;2023-04-01T05:32:26;18.70;;;11.30;;
18304;SDS011;9278;52.156;21.048;2023-04-01T05:34:56;17.40;;;11.05;;
18304;SDS011;9278;52.156;21.048;2023-04-01T05:37:24;18.25;;;11.20;;
18304;SDS011;9278;52.156;21.048;2023-04-01T05:39:53;14.77;;;9.55;;
18304;SDS011;9278;52.156;21.048;2023-04-01T05:42:22;15.48;;;9.93;;
18304;SDS011;9278;52.156;21.048;2023-04-01T05:44:50;19.83;;;10.18;;
18304;SDS011;9278;52.156;21.048;2023-04-01T05:47:47;13.35;;;8.88;;
18304;SDS011;9278;52.156;21.048;2023-04-01T05:50:18;13.90;;;8.93;;
18304;SDS011;9278;52.156;21.048;2023-04-01T05:52:46;14.40;;;8.63;;
18304;SDS011;9278;52.156;21.048;2023-04-01T05:55:15;14.55;;;9.10;;
18304;SDS011;9278;52.156;21.048;2023-04-01T05:57:44;15.02;;;9.70;;
18304;SDS011;9278;52.156;21.048;2023-04-01T06:00:15;16.00;;;9.48;;
18304;SDS011;9278;52.156;21.048;2023-04-01T06:02:47;14.80;;;10.13;;
18304;SDS011;9278;52.156;21.048;2023-04-01T06:05:19;17.90;;;10.35;;
18304;SDS011;9278;52.156;21.048;2023-04-01T06:07:49;16.55;;;10.57;;
18304;SDS011;9278;52.156;21.048;2023-04-01T06:10:19;18.38;;;10.85;;
18304;SDS011;9278;52.156;21.048;2023-04-01T06:12:55;19.77;;;11.07;;
18304;SDS011;9278;52.156;21.048;2023-04-01T06:15:38;19.70;;;11.80;;
18304;SDS011;9278;52.156;21.048;2023-04-01T06:18:17;19.33;;;11.60;;
18304;SDS011;9278;52.156;21.048;2023-04-01T06:21:12;18.92;;;11.77;;
18304;SDS011;9278;52.156;21.048;2023-04-01T06:24:05;22.85;;;12.65;;
18304;SDS011;9278;52.156;21.048;2023-04-01T06:26:46;21.70;;;13.38;;
18304;SDS011;9278;52.156;21.048;2023-04-01T06:29:27;23.17;;;13.55;;
18304;SDS011;9278;52.156;21.048;2023-04-01T06:32:15;24.75;;;13.55;;
18304;SDS011;9278;52.156;21.048;2023-04-01T06:35:11;26.10;;;12.80;;
18304;SDS011;9278;52.156;21.048;2023-04-01T06:41:17;19.95;;;13.32;;
18304;SDS011;9278;52.156;21.048;2023-04-01T06:44:16;24.33;;;14.15;;
18304;SDS011;9278;52.156;21.048;2023-04-01T06:47:31;23.33;;;14.65;;
18304;SDS011;9278;52.156;21.048;2023-04-01T06:50:30;23.35;;;13.73;;
18304;SDS011;9278;52.156;21.048;2023-04-01T06:53:30;25.17;;;14.32;;
18304;SDS011;9278;52.156;21.048;2023-04-01T06:56:27;25.23;;;15.13;;
18304;SDS011;9278;52.156;21.048;2023-04-01T06:59:02;23.77;;;15.25;;
18304;SDS011;9278;52.156;21.048;2023-04-01T07:01:33;23.20;;;14.73;;
18304;SDS011;9278;52.156;21.048;2023-04-01T07:04:05;27.42;;;17.08;;
18304;SDS011;9278;52.156;21.048;2023-04-01T07:06:39;23.42;;;15.18;;
18304;SDS011;9278;52.156;21.048;2023-04-01T07:09:14;26.42;;;15.95;;
18304;SDS011;9278;52.156;21.048;2023-04-01T07:12:06;30.98;;;15.85;;
18304;SDS011;9278;52.156;21.048;2023-04-01T07:15:01;30.30;;;16.98;;
18304;SDS011;9278;52.156;21.048;2023-04-01T07:17:33;27.65;;;16.50;;
18304;SDS011;9278;52.156;21.048;2023-04-01T07:20:10;25.23;;;15.80;;
18304;SDS011;9278;52.156;21.048;2023-04-01T07:22:45;27.85;;;17.15;;
18304;SDS011;9278;52.156;21.048;2023-04-01T07:25:43;26.20;;;16.63;;
18304;SDS011;9278;52.156;21.048;2023-04-01T07:28:33;25.55;;;16.02;;
18304;SDS011;9278;52.156;21.048;2023-04-01T07:31:15;28.08;;;17.15;;
18304;SDS011;9278;52.156;21.048;2023-04-01T07:33:52;28.23;;;16.50;;
18304;SDS011;9278;52.156;21.048;2023-04-01T07:36:29;26.83;;;16.90;;
18304;SDS011;9278;52.156;21.048;2023-04-01T07:39:06;27.08;;;17.75;;
18304;SDS011;9278;52.156;21.048;2023-04-01T07:42:14;30.58;;;18.13;;
18304;SDS011;9278;52.156;21.048;2023-04-01T07:44:52;26.40;;;17.33;;
18304;SDS011;9278;52.156;21.048;2023-04-01T07:47:30;28.38;;;17.33;;
18304;SDS011;9278;52.156;21.048;2023-04-01T07:50:10;26.20;;;17.10;;
18304;SDS011;9278;52.156;21.048;2023-04-01T07:52:47;26.33;;;17.25;;
18304;SDS011;9278;52.156;21.048;2023-04-01T07:55:25;28.33;;;17.83;;
18304;SDS011;9278;52.156;21.048;2023-04-01T07:58:01;29.42;;;18.63;;
18304;SDS011;9278;52.156;21.048;2023-04-01T08:00:42;26.50;;;16.85;;
18304;SDS011;9278;52.156;21.048;2023-04-01T08:03:31;24.95;;;17.10;;
18304;SDS011;9278;52.156;21.048;2023-04-01T08:06:08;25.20;;;16.58;;
18304;SDS011;9278;52.156;21.048;2023-04-01T08:08:46;28.08;;;16.60;;
18304;SDS011;9278;52.156;21.048;2023-04-01T08:11:44;28.92;;;17.60;;
18304;SDS011;9278;52.156;21.048;2023-04-01T08:14:48;23.83;;;17.02;;
18304;SDS011;9278;52.156;21.048;2023-04-01T08:17:48;29.42;;;17.80;;
18304;SDS011;9278;52.156;21.048;2023-04-01T08:20:26;25.65;;;17.63;;
18304;SDS011;9278;52.156;21.048;2023-04-01T08:23:00;27.20;;;18.02;;
18304;SDS011;9278;52.156;21.048;2023-04-01T08:25:41;26.98;;;17.55;;
18304;SDS011;9278;52.156;21.048;2023-04-01T08:28:17;29.67;;;19.20;;
18304;SDS011;9278;52.156;21.048;2023-04-01T08:30:53;30.98;;;19.35;;
18304;SDS011;9278;52.156;21.048;2023-04-01T08:33:24;26.58;;;18.40;;
18304;SDS011;9278;52.156;21.048;2023-04-01T08:36:03;30.80;;;19.40;;
18304;SDS011;9278;52.156;21.048;2023-04-01T08:38:38;24.88;;;15.20;;
18304;SDS011;9278;52.156;21.048;2023-04-01T08:41:18;25.23;;;16.80;;
18304;SDS011;9278;52.156;21.048;2023-04-01T08:44:33;26.70;;;17.08;;
18304;SDS011;9278;52.156;21.048;2023-04-01T08:47:33;23.60;;;16.35;;
18304;SDS011;9278;52.156;21.048;2023-04-01T08:50:34;25.17;;;15.88;;
18304;SDS011;9278;52.156;21.048;2023-04-01T08:53:29;23.33;;;15.75;;
18304;SDS011;9278;52.156;21.048;2023-04-01T08:56:17;27.10;;;16.50;;
18304;SDS011;9278;52.156;21.048;2023-04-01T09:01:46;27.25;;;16.33;;
18304;SDS011;9278;52.156;21.048;2023-04-01T09:05:00;21.85;;;12.60;;
18304;SDS011;9278;52.156;21.048;2023-04-01T09:07:51;17.60;;;10.57;;
18304;SDS011;9278;52.156;21.048;2023-04-01T09:10:33;17.02;;;10.73;;
18304;SDS011;9278;52.156;21.048;2023-04-01T09:14:03;14.98;;;10.27;;
18304;SDS011;9278;52.156;21.048;2023-04-01T09:17:17;16.50;;;10.07;;
18304;SDS011;9278;52.156;21.048;2023-04-01T09:20:19;14.60;;;9.82;;
18304;SDS011;9278;52.156;21.048;2023-04-01T09:23:23;15.15;;;9.82;;
18304;SDS011;9278;52.156;21.048;2023-04-01T09:26:12;15.27;;;9.75;;
18304;SDS011;9278;52.156;21.048;2023-04-01T09:28:58;15.95;;;9.32;;
18304;SDS011;9278;52.156;21.048;2023-04-01T09:31:41;15.15;;;9.88;;
18304;SDS011;9278;52.156;21.048;2023-04-01T09:34:49;14.82;;;9.02;;
18304;SDS011;9278;52.156;21.048;2023-04-01T09:37:31;17.42;;;8.95;;
18304;SDS011;9278;52.156;21.048;2023-04-01T09:40:14;14.25;;;9.20;;
18304;SDS011;9278;52.156;21.048;2023-04-01T09:42:55;17.70;;;9.90;;
18304;SDS011;9278;52.156;21.048;2023-04-01T09:45:53;15.75;;;10.63;;
18304;SDS011;9278;52.156;21.048;2023-04-01T09:51:48;19.52;;;11.32;;
18304;SDS011;9278;52.156;21.048;2023-04-01T09:54:31;21.58;;;11.95;;
18304;SDS011;9278;52.156;21.048;2023-04-01T10:00:45;17.50;;;9.32;;
18304;SDS011;9278;52.156;21.048;2023-04-01T10:09:58;6.95;;;4.15;;
18304;SDS011;9278;52.156;21.048;2023-04-01T10:16:22;7.65;;;5.18;;
18304;SDS011;9278;52.156;21.048;2023-04-01T10:19:19;9.35;;;5.30;;
18304;SDS011;9278;52.156;21.048;2023-04-01T10:25:29;8.60;;;4.70;;
18304;SDS011;9278;52.156;21.048;2023-04-01T10:28:33;11.32;;;4.70;;
18304;SDS011;9278;52.156;21.048;2023-04-01T10:31:56;7.78;;;4.32;;
18304;SDS011;9278;52.156;21.048;2023-04-01T10:40:58;5.53;;;3.90;;
18304;SDS011;9278;52.156;21.048;2023-04-01T10:53:49;5.82;;;3.88;;
18304;SDS011;9278;52.156;21.048;2023-04-01T10:57:10;8.02;;;4.22;;
18304;SDS011;9278;52.156;21.048;2023-04-01T11:03:46;6.40;;;4.40;;
18304;SDS011;9278;52.156;21.048;2023-04-01T11:07:17;5.78;;;3.83;;
18304;SDS011;9278;52.156;21.048;2023-04-01T11:16:22;4.28;;;3.00;;
18304;SDS011;9278;52.156;21.048;2023-04-01T11:19:34;4.38;;;2.70;;
18304;SDS011;9278;52.156;21.048;2023-04-01T11:22:32;5.57;;;3.33;;
18304;SDS011;9278;52.156;21.048;2023-04-01T11:25:23;4.63;;;3.20;;
18304;SDS011;9278;52.156;21.048;2023-04-01T11:31:26;4.25;;;3.50;;
18304;SDS011;9278;52.156;21.048;2023-04-01T11:34:05;5.18;;;3.38;;
18304;SDS011;9278;52.156;21.048;2023-04-01T11:36:46;5.80;;;4.18;;
18304;SDS011;9278;52.156;21.048;2023-04-01T11:39:29;6.13;;;3.78;;
18304;SDS011;9278;52.156;21.048;2023-04-01T11:42:28;5.38;;;4.15;;
18304;SDS011;9278;52.156;21.048;2023-04-01T11:45:48;7.20;;;3.97;;
18304;SDS011;9278;52.156;21.048;2023-04-01T11:54:26;6.38;;;4.80;;
18304;SDS011;9278;52.156;21.048;2023-04-01T11:57:10;6.85;;;4.95;;
18304;SDS011;9278;52.156;21.048;2023-04-01T11:59:53;6.90;;;5.25;;
18304;SDS011;9278;52.156;21.048;2023-04-01T12:02:31;7.43;;;5.40;;
18304;SDS011;9278;52.156;21.048;2023-04-01T12:05:20;7.57;;;5.68;;
18304;SDS011;9278;52.156;21.048;2023-04-01T12:08:04;10.60;;;6.20;;
18304;SDS011;9278;52.156;21.048;2023-04-01T12:10:39;9.23;;;6.03;;
18304;SDS011;9278;52.156;21.048;2023-04-01T12:13:20;11.07;;;6.05;;
18304;SDS011;9278;52.156;21.048;2023-04-01T12:18:46;10.25;;;6.40;;
18304;SDS011;9278;52.156;21.048;2023-04-01T12:21:23;9.80;;;6.20;;
18304;SDS011;9278;52.156;21.048;2023-04-01T12:24:25;10.32;;;6.30;;
18304;SDS011;9278;52.156;21.048;2023-04-01T12:27:10;10.45;;;6.35;;
18304;SDS011;9278;52.156;21.048;2023-04-01T12:30:08;12.77;;;6.90;;
18304;SDS011;9278;52.156;21.048;2023-04-01T12:33:00;9.73;;;6.22;;
18304;SDS011;9278;52.156;21.048;2023-04-01T12:35:46;7.93;;;5.57;;
18304;SDS011;9278;52.156;21.048;2023-04-01T12:38:30;8.90;;;5.45;;
18304;SDS011;9278;52.156;21.048;2023-04-01T12:41:08;8.20;;;5.47;;
18304;SDS011;9278;52.156;21.048;2023-04-01T12:43:53;6.90;;;5.38;;
18304;SDS011;9278;52.156;21.048;2023-04-01T12:46:48;7.32;;;5.22;;
18304;SDS011;9278;52.156;21.048;2023-04-01T12:52:47;8.60;;;5.43;;
18304;SDS011;9278;52.156;21.048;2023-04-01T12:55:34;7.05;;;4.65;;
18304;SDS011;9278;52.156;21.048;2023-04-01T13:01:43;6.20;;;4.18;;
18304;SDS011;9278;52.156;21.048;2023-04-01T13:04:30;6.68;;;5.03;;
18304;SDS011;9278;52.156;21.048;2023-04-01T13:07:23;9.13;;;5.70;;
18304;SDS011;9278;52.156;21.048;2023-04-01T13:10:15;7.43;;;5.03;;
18304;SDS011;9278;52.156;21.048;2023-04-01T13:13:00;6.22;;;4.95;;
18304;SDS011;9278;52.156;21.048;2023-04-01T13:15:47;8.50;;;5.80;;
18304;SDS011;9278;52.156;21.048;2023-04-01T13:18:22;8.95;;;5.05;;
18304;SDS011;9278;52.156;21.048;2023-04-01T13:21:01;8.77;;;5.90;;
18304;SDS011;9278;52.156;21.048;2023-04-01T13:23:39;7.30;;;4.90;;
18304;SDS011;9278;52.156;21.048;2023-04-01T13:26:20;5.32;;;4.18;;
18304;SDS011;9278;52.156;21.048;2023-04-01T13:28:53;5.10;;;4.22;;
18304;SDS011;9278;52.156;21.048;2023-04-01T13:31:34;8.23;;;4.30;;
18304;SDS011;9278;52.156;21.048;2023-04-01T13:34:16;7.28;;;4.93;;
18304;SDS011;9278;52.156;21.048;2023-04-01T13:36:55;7.43;;;4.93;;
18304;SDS011;9278;52.156;21.048;2023-04-01T13:39:35;7.05;;;5.15;;
18304;SDS011;9278;52.156;21.048;2023-04-01T13:42:16;4.90;;;3.90;;
18304;SDS011;9278;52.156;21.048;2023-04-01T13:44:51;6.00;;;4.13;;
18304;SDS011;9278;52.156;21.048;2023-04-01T13:47:24;6.63;;;4.40;;
18304;SDS011;9278;52.156;21.048;2023-04-01T13:50:23;5.35;;;3.97;;
18304;SDS011;9278;52.156;21.048;2023-04-01T13:56:13;5.45;;;3.03;;
18304;SDS011;9278;52.156;21.048;2023-04-01T14:01:58;4.75;;;3.83;;
18304;SDS011;9278;52.156;21.048;2023-04-01T14:04:45;5.75;;;4.47;;
18304;SDS011;9278;52.156;21.048;2023-04-01T14:07:28;6.53;;;4.43;;
18304;SDS011;9278;52.156;21.048;2023-04-01T14:10:19;7.35;;;4.78;;
18304;SDS011;9278;52.156;21.048;2023-04-01T14:12:57;6.47;;;4.53;;
18304;SDS011;9278;52.156;21.048;2023-04-01T14:15:38;10.25;;;4.60;;
18304;SDS011;9278;52.156;21.048;2023-04-01T14:18:36;7.57;;;4.55;;
18304;SDS011;9278;52.156;21.048;2023-04-01T14:21:17;6.05;;;3.85;;
18304;SDS011;9278;52.156;21.048;2023-04-01T14:23:58;6.82;;;4.07;;
18304;SDS011;9278;52.156;21.048;2023-04-01T14:29:43;10.60;;;3.75;;
18304;SDS011;9278;52.156;21.048;2023-04-01T14:32:24;5.05;;;3.70;;
18304;SDS011;9278;52.156;21.048;2023-04-01T14:35:09;5.28;;;3.75;;
18304;SDS011;9278;52.156;21.048;2023-04-01T14:37:56;5.88;;;4.13;;
18304;SDS011;9278;52.156;21.048;2023-04-01T14:40:40;6.35;;;4.10;;
18304;SDS011;9278;52.156;21.048;2023-04-01T14:46:31;7.55;;;4.13;;
18304;SDS011;9278;52.156;21.048;2023-04-01T14:49:34;5.25;;;3.17;;
18304;SDS011;9278;52.156;21.048;2023-04-01T14:52:10;6.57;;;3.50;;
18304;SDS011;9278;52.156;21.048;2023-04-01T14:54:42;7.18;;;3.45;;
18304;SDS011;9278;52.156;21.048;2023-04-01T14:57:14;5.68;;;3.30;;
18304;SDS011;9278;52.156;21.048;2023-04-01T14:59:48;4.47;;;2.50;;
18304;SDS011;9278;52.156;21.048;2023-04-01T15:02:28;4.10;;;2.47;;
18304;SDS011;9278;52.156;21.048;2023-04-01T15:05:12;3.17;;;2.33;;
18304;SDS011;9278;52.156;21.048;2023-04-01T15:08:07;5.20;;;2.25;;
18304;SDS011;9278;52.156;21.048;2023-04-01T15:10:43;2.97;;;2.20;;
18304;SDS011;9278;52.156;21.048;2023-04-01T15:13:24;2.50;;;2.20;;
18304;SDS011;9278;52.156;21.048;2023-04-01T15:16:13;3.83;;;2.20;;
18304;SDS011;9278;52.156;21.048;2023-04-01T15:18:53;3.28;;;2.00;;
18304;SDS011;9278;52.156;21.048;2023-04-01T15:21:32;2.70;;;2.05;;
18304;SDS011;9278;52.156;21.048;2023-04-01T15:24:19;2.63;;;1.88;;
18304;SDS011;9278;52.156;21.048;2023-04-01T15:26:58;2.55;;;2.00;;
18304;SDS011;9278;52.156;21.048;2023-04-01T15:32:37;2.72;;;2.00;;
18304;SDS011;9278;52.156;21.048;2023-04-01T15:35:17;3.28;;;1.85;;
18304;SDS011;9278;52.156;21.048;2023-04-01T15:37:52;2.38;;;1.50;;
18304;SDS011;9278;52.156;21.048;2023-04-01T15:40:26;2.22;;;1.77;;
18304;SDS011;9278;52.156;21.048;2023-04-01T15:43:02;3.03;;;2.17;;
18304;SDS011;9278;52.156;21.048;2023-04-01T15:45:42;4.57;;;2.65;;
18304;SDS011;9278;52.156;21.048;2023-04-01T15:48:22;7.53;;;4.63;;
18304;SDS011;9278;52.156;21.048;2023-04-01T15:51:09;13.88;;;6.25;;
18304;SDS011;9278;52.156;21.048;2023-04-01T15:53:56;10.73;;;4.20;;
18304;SDS011;9278;52.156;21.048;2023-04-01T15:57:05;9.90;;;4.80;;
18304;SDS011;9278;52.156;21.048;2023-04-01T16:00:02;7.47;;;3.80;;
18304;SDS011;9278;52.156;21.048;2023-04-01T16:02:40;4.65;;;2.67;;
18304;SDS011;9278;52.156;21.048;2023-04-01T16:05:26;4.50;;;2.65;;
18304;SDS011;9278;52.156;21.048;2023-04-01T16:08:05;6.10;;;3.08;;
18304;SDS011;9278;52.156;21.048;2023-04-01T16:10:50;10.75;;;3.22;;
18304;SDS011;9278;52.156;21.048;2023-04-01T16:13:34;4.03;;;2.95;;
18304;SDS011;9278;52.156;21.048;2023-04-01T16:16:23;5.72;;;3.22;;
18304;SDS011;9278;52.156;21.048;2023-04-01T16:19:09;3.70;;;2.45;;
18304;SDS011;9278;52.156;21.048;2023-04-01T16:21:53;3.42;;;2.40;;
18304;SDS011;9278;52.156;21.048;2023-04-01T16:24:31;4.95;;;2.03;;
18304;SDS011;9278;52.156;21.048;2023-04-01T16:27:08;6.38;;;2.33;;
18304;SDS011;9278;52.156;21.048;2023-04-01T16:29:45;4.53;;;2.60;;
18304;SDS011;9278;52.156;21.048;2023-04-01T16:35:16;3.17;;;2.28;;
18304;SDS011;9278;52.156;21.048;2023-04-01T16:37:55;2.55;;;2.08;;
18304;SDS011;9278;52.156;21.048;2023-04-01T16:40:40;5.22;;;2.22;;
18304;SDS011;9278;52.156;21.048;2023-04-01T16:43:13;4.45;;;1.80;;
18304;SDS011;9278;52.156;21.048;2023-04-01T16:45:54;3.22;;;1.98;;
18304;SDS011;9278;52.156;21.048;2023-04-01T16:48:45;2.85;;;2.10;;
18304;SDS011;9278;52.156;21.048;2023-04-01T16:51:25;2.58;;;1.88;;
18304;SDS011;9278;52.156;21.048;2023-04-01T16:54:02;4.80;;;2.70;;
18304;SDS011;9278;52.156;21.048;2023-04-01T16:56:38;1.70;;;1.52;;
18304;SDS011;9278;52.156;21.048;2023-04-01T16:59:14;2.47;;;1.88;;
18304;SDS011;9278;52.156;21.048;2023-04-01T17:01:49;3.47;;;1.65;;
18304;SDS011;9278;52.156;21.048;2023-04-01T17:04:24;4.57;;;2.25;;
18304;SDS011;9278;52.156;21.048;2023-04-01T17:07:01;4.43;;;2.40;;
18304;SDS011;9278;52.156;21.048;2023-04-01T17:09:48;4.15;;;2.42;;
18304;SDS011;9278;52.156;21.048;2023-04-01T17:12:28;6.90;;;2.30;;
18304;SDS011;9278;52.156;21.048;2023-04-01T17:15:04;5.75;;;2.70;;
18304;SDS011;9278;52.156;21.048;2023-04-01T17:17:47;4.53;;;2.50;;